Terminal Aerodrome Forecast
Issued by NWS Louisville, KY

Home | Current Version | Previous Version | Text Only | Print | Product List | Glossary On
Versions: 1 2 3 4 5 6 7 8 9 10 11 12 13 14
000
FTUS43 KLMK 301100
TAFBWG
TAF
KBWG 301121Z 3012/3112 00000KT P6SM SKC
      TEMPO 3012/3013 3SM BR
     FM301800 VRB03KT P6SM SCT100
     FM311000 00000KT P6SM VCSH BKN050=

USA.gov is the U.S. government's official web portal to all federal, state and local government web resources and services.